AZG1011 UGTB-UBBB
Flight info
| Callsign | AZG1011 |
|---|---|
| Flight time | N/A |
| Altitude | 35000 |
| Route | DISK1E DISKA M737 VERCA M747 LUSAL N319 PENOB T447 INSAN INSA1G |
| Aircraft | B77L/H-VGD/A |
Departure
| Time | 2026-04-26 15:38 |
|---|---|
| Airport | Tbilisi International Airport (UGTB) |
Arrival
| Time | N/A |
|---|---|
| Airport | Heydar Aliyev International Airport (UBBB) |
| Time | Latitude | Longitude | Altitude | Speed | Heading |
|---|---|---|---|---|---|
| 2026-04-26 15:14 | 41.67416 | 44.95665 | 1530 ft | 0 kts | 315° |
| 2026-04-26 15:19 | 41.67415 | 44.95665 | 1523 ft | 0 kts | 315° |
| 2026-04-26 15:33 | 41.67427 | 44.95649 | 1523 ft | 4 kts | 315° |
| 2026-04-26 15:33 | 41.67428 | 44.95600 | 1524 ft | 7 kts | 243° |
| 2026-04-26 15:33 | 41.67383 | 44.95539 | 1524 ft | 11 kts | 223° |
| 2026-04-26 15:34 | 41.67392 | 44.95446 | 1524 ft | 13 kts | 309° |
| 2026-04-26 15:34 | 41.67462 | 44.95338 | 1522 ft | 17 kts | 310° |
| 2026-04-26 15:34 | 41.67549 | 44.95202 | 1522 ft | 21 kts | 311° |
| 2026-04-26 15:34 | 41.67638 | 44.95080 | 1526 ft | 16 kts | 315° |
| 2026-04-26 15:35 | 41.67653 | 44.94941 | 1524 ft | 18 kts | 252° |
| 2026-04-26 15:35 | 41.67613 | 44.94772 | 1523 ft | 12 kts | 252° |
| 2026-04-26 15:35 | 41.67603 | 44.94732 | 1526 ft | 3 kts | 252° |
| 2026-04-26 15:35 | 41.67599 | 44.94714 | 1523 ft | 4 kts | 252° |
| 2026-04-26 15:36 | 41.67585 | 44.94655 | 1523 ft | 9 kts | 252° |
| 2026-04-26 15:36 | 41.67562 | 44.94560 | 1529 ft | 7 kts | 251° |
| 2026-04-26 15:36 | 41.67551 | 44.94514 | 1524 ft | 4 kts | 251° |
| 2026-04-26 15:36 | 41.67537 | 44.94457 | 1525 ft | 8 kts | 251° |
| 2026-04-26 15:37 | 41.67493 | 44.94403 | 1523 ft | 11 kts | 175° |
| 2026-04-26 15:37 | 41.67427 | 44.94470 | 1522 ft | 15 kts | 137° |
| 2026-04-26 15:37 | 41.67305 | 44.94624 | 1523 ft | 33 kts | 136° |
| 2026-04-26 15:37 | 41.67004 | 44.95002 | 1524 ft | 101 kts | 137° |
| 2026-04-26 15:38 | 41.66274 | 44.95916 | 1540 ft | 183 kts | 137° |
| 2026-04-26 15:38 | 41.65315 | 44.97113 | 2313 ft | 185 kts | 137° |
| 2026-04-26 15:38 | 41.64346 | 44.98297 | 3108 ft | 194 kts | 137° |
| 2026-04-26 15:38 | 41.63308 | 44.99589 | 3407 ft | 215 kts | 137° |
| 2026-04-26 15:39 | 41.62173 | 45.01031 | 3647 ft | 237 kts | 136° |
| 2026-04-26 15:39 | 41.60933 | 45.02616 | 4027 ft | 254 kts | 136° |
| 2026-04-26 15:39 | 41.59647 | 45.04253 | 4700 ft | 259 kts | 135° |
| 2026-04-26 15:39 | 41.58781 | 45.05369 | 5170 ft | 261 kts | 136° |
| 2026-04-26 15:40 | 41.56976 | 45.07586 | 6136 ft | 265 kts | 138° |
| 2026-04-26 15:40 | 41.55697 | 45.09419 | 6701 ft | 275 kts | 125° |
| 2026-04-26 15:40 | 41.54667 | 45.11588 | 7368 ft | 277 kts | 123° |
| 2026-04-26 15:40 | 41.53640 | 45.13809 | 7964 ft | 283 kts | 122° |
| 2026-04-26 15:41 | 41.52601 | 45.16070 | 8601 ft | 288 kts | 123° |
| 2026-04-26 15:41 | 41.51547 | 45.18346 | 9269 ft | 293 kts | 124° |
| 2026-04-26 15:41 | 41.50458 | 45.20670 | 9918 ft | 298 kts | 124° |
| 2026-04-26 15:41 | 41.49337 | 45.23047 | 10425 ft | 309 kts | 124° |
| 2026-04-26 15:42 | 41.48145 | 45.25561 | 10597 ft | 332 kts | 124° |
| 2026-04-26 15:42 | 41.46884 | 45.28216 | 10782 ft | 354 kts | 124° |
| 2026-04-26 15:42 | 41.45416 | 45.30990 | 10954 ft | 373 kts | 132° |
| 2026-04-26 15:42 | 41.43652 | 45.33595 | 11492 ft | 383 kts | 136° |
| 2026-04-26 15:43 | 41.41777 | 45.36163 | 12167 ft | 389 kts | 137° |
| 2026-04-26 15:43 | 41.39891 | 45.38731 | 12965 ft | 393 kts | 136° |
| 2026-04-26 15:43 | 41.36070 | 45.44052 | 14511 ft | 401 kts | 136° |
| 2026-04-26 15:44 | 41.34155 | 45.46767 | 15208 ft | 405 kts | 136° |
| 2026-04-26 15:44 | 41.30261 | 45.52316 | 16584 ft | 413 kts | 135° |
| 2026-04-26 15:44 | 41.28320 | 45.55084 | 17271 ft | 417 kts | 136° |
| 2026-04-26 15:45 | 41.24312 | 45.60783 | 18541 ft | 426 kts | 135° |
| 2026-04-26 15:45 | 41.22403 | 45.63832 | 19115 ft | 432 kts | 128° |
| 2026-04-26 15:46 | 41.19556 | 45.70947 | 20329 ft | 443 kts | 113° |
| 2026-04-26 15:46 | 41.18526 | 45.74834 | 20907 ft | 447 kts | 111° |
| 2026-04-26 15:46 | 41.17522 | 45.78762 | 21444 ft | 451 kts | 111° |
| 2026-04-26 15:46 | 41.16854 | 45.81385 | 21791 ft | 454 kts | 111° |
| 2026-04-26 15:47 | 41.15478 | 45.86738 | 22451 ft | 461 kts | 112° |
| 2026-04-26 15:47 | 41.13353 | 45.94836 | 23573 ft | 467 kts | 113° |
| 2026-04-26 15:47 | 41.12271 | 45.98919 | 24049 ft | 470 kts | 113° |
| 2026-04-26 15:48 | 41.11223 | 46.02853 | 24470 ft | 474 kts | 113° |
| 2026-04-26 15:48 | 41.10119 | 46.06993 | 24919 ft | 477 kts | 113° |
| 2026-04-26 15:48 | 41.09005 | 46.11165 | 25364 ft | 480 kts | 113° |
| 2026-04-26 15:48 | 41.07886 | 46.15354 | 25810 ft | 482 kts | 112° |
| 2026-04-26 15:49 | 41.06776 | 46.19502 | 26263 ft | 485 kts | 112° |
| 2026-04-26 15:49 | 41.05640 | 46.23743 | 26678 ft | 488 kts | 112° |
| 2026-04-26 15:49 | 41.04491 | 46.28020 | 27094 ft | 492 kts | 113° |
| 2026-04-26 15:49 | 41.03339 | 46.32309 | 27504 ft | 495 kts | 112° |
| 2026-04-26 15:50 | 41.02184 | 46.36626 | 27912 ft | 499 kts | 112° |
| 2026-04-26 15:50 | 41.01022 | 46.40974 | 28280 ft | 503 kts | 112° |
| 2026-04-26 15:50 | 40.99852 | 46.45352 | 28655 ft | 506 kts | 112° |
| 2026-04-26 15:50 | 40.98675 | 46.49747 | 29015 ft | 508 kts | 112° |
| 2026-04-26 15:51 | 40.97493 | 46.54153 | 29424 ft | 510 kts | 112° |
| 2026-04-26 15:51 | 40.96303 | 46.58579 | 29933 ft | 509 kts | 112° |
| 2026-04-26 15:51 | 40.95113 | 46.63000 | 30431 ft | 507 kts | 112° |
| 2026-04-26 15:51 | 40.93927 | 46.67394 | 30850 ft | 507 kts | 112° |
| 2026-04-26 15:52 | 40.92740 | 46.71783 | 31222 ft | 507 kts | 112° |
| 2026-04-26 15:52 | 40.91547 | 46.76188 | 31571 ft | 508 kts | 112° |
| 2026-04-26 15:52 | 40.90349 | 46.80600 | 31938 ft | 507 kts | 112° |
| 2026-04-26 15:52 | 40.89559 | 46.83505 | 32190 ft | 507 kts | 112° |
| 2026-04-26 15:53 | 40.87956 | 46.89369 | 32693 ft | 507 kts | 112° |
| 2026-04-26 15:53 | 40.86753 | 46.93753 | 33072 ft | 506 kts | 112° |
| 2026-04-26 15:53 | 40.85566 | 46.98071 | 33406 ft | 506 kts | 112° |
| 2026-04-26 15:53 | 40.84420 | 47.02237 | 33726 ft | 506 kts | 112° |
| 2026-04-26 15:54 | 40.83218 | 47.06604 | 34075 ft | 505 kts | 112° |
| 2026-04-26 15:54 | 40.82045 | 47.10860 | 34433 ft | 503 kts | 112° |
| 2026-04-26 15:54 | 40.80870 | 47.15113 | 34754 ft | 501 kts | 113° |
| 2026-04-26 15:54 | 40.79669 | 47.19433 | 35036 ft | 501 kts | 113° |
| 2026-04-26 15:55 | 40.78459 | 47.23761 | 35068 ft | 505 kts | 113° |
| 2026-04-26 15:55 | 40.76020 | 47.32465 | 35094 ft | 503 kts | 114° |
| 2026-04-26 15:56 | 40.73611 | 47.41054 | 35095 ft | 497 kts | 114° |
| 2026-04-26 15:56 | 40.71211 | 47.49589 | 35096 ft | 494 kts | 114° |
| 2026-04-26 15:57 | 40.68820 | 47.58081 | 35109 ft | 493 kts | 114° |
| 2026-04-26 15:57 | 40.66425 | 47.66556 | 35096 ft | 494 kts | 114° |
| 2026-04-26 15:58 | 40.64031 | 47.75004 | 35102 ft | 495 kts | 114° |
| 2026-04-26 15:58 | 40.61620 | 47.83488 | 34707 ft | 496 kts | 114° |
| 2026-04-26 15:58 | 40.60418 | 47.87704 | 34356 ft | 490 kts | 114° |
| 2026-04-26 15:59 | 40.59050 | 47.91754 | 33942 ft | 481 kts | 122° |
| 2026-04-26 15:59 | 40.57273 | 47.95497 | 33578 ft | 469 kts | 129° |
| 2026-04-26 15:59 | 40.55310 | 47.98794 | 33213 ft | 460 kts | 135° |
| 2026-04-26 15:59 | 40.53198 | 48.01595 | 32752 ft | 453 kts | 141° |
| 2026-04-26 16:00 | 40.50888 | 48.04397 | 32234 ft | 451 kts | 141° |
| 2026-04-26 16:00 | 40.48620 | 48.07242 | 31719 ft | 450 kts | 137° |
| 2026-04-26 16:00 | 40.46618 | 48.10393 | 31276 ft | 450 kts | 129° |
| 2026-04-26 16:00 | 40.44898 | 48.13827 | 30857 ft | 449 kts | 123° |
| 2026-04-26 16:01 | 40.43481 | 48.17463 | 30504 ft | 445 kts | 118° |
| 2026-04-26 16:01 | 40.42181 | 48.21130 | 30131 ft | 441 kts | 117° |
| 2026-04-26 16:01 | 40.40899 | 48.24762 | 29624 ft | 437 kts | 117° |
| 2026-04-26 16:01 | 40.39614 | 48.28384 | 29103 ft | 435 kts | 117° |
| 2026-04-26 16:02 | 40.38331 | 48.31970 | 28604 ft | 432 kts | 118° |
| 2026-04-26 16:02 | 40.37055 | 48.35515 | 28136 ft | 429 kts | 118° |
| 2026-04-26 16:02 | 40.35783 | 48.39035 | 27723 ft | 424 kts | 118° |
| 2026-04-26 16:02 | 40.34957 | 48.41317 | 27720 ft | 414 kts | 118° |
| 2026-04-26 16:03 | 40.33307 | 48.45860 | 27578 ft | 416 kts | 118° |
| 2026-04-26 16:03 | 40.32040 | 48.49336 | 27103 ft | 427 kts | 118° |
| 2026-04-26 16:03 | 40.30752 | 48.52867 | 26601 ft | 429 kts | 118° |
| 2026-04-26 16:03 | 40.29473 | 48.56375 | 26121 ft | 427 kts | 118° |
| 2026-04-26 16:04 | 40.28189 | 48.59896 | 25626 ft | 426 kts | 118° |
| 2026-04-26 16:04 | 40.26915 | 48.63387 | 25145 ft | 424 kts | 118° |
| 2026-04-26 16:04 | 40.26075 | 48.65686 | 24844 ft | 423 kts | 118° |
| 2026-04-26 16:04 | 40.24801 | 48.69161 | 24370 ft | 422 kts | 118° |
| 2026-04-26 16:05 | 40.23531 | 48.72636 | 23896 ft | 421 kts | 118° |
| 2026-04-26 16:05 | 40.22269 | 48.76079 | 23419 ft | 420 kts | 118° |
| 2026-04-26 16:05 | 40.21009 | 48.79509 | 22883 ft | 418 kts | 118° |
| 2026-04-26 16:05 | 40.19760 | 48.82928 | 22354 ft | 418 kts | 116° |
| 2026-04-26 16:06 | 40.18704 | 48.86488 | 21839 ft | 418 kts | 109° |
| 2026-04-26 16:06 | 40.17957 | 48.90158 | 21332 ft | 418 kts | 103° |
| 2026-04-26 16:06 | 40.17389 | 48.93887 | 20829 ft | 417 kts | 102° |
| 2026-04-26 16:06 | 40.16834 | 48.97605 | 20329 ft | 416 kts | 102° |
| 2026-04-26 16:07 | 40.16305 | 49.01123 | 19863 ft | 414 kts | 102° |
| 2026-04-26 16:07 | 40.15743 | 49.04805 | 19325 ft | 407 kts | 102° |
| 2026-04-26 16:07 | 40.15193 | 49.08362 | 18789 ft | 395 kts | 102° |
| 2026-04-26 16:07 | 40.14648 | 49.11849 | 18227 ft | 386 kts | 102° |
| 2026-04-26 16:08 | 40.14120 | 49.15211 | 17622 ft | 379 kts | 102° |
| 2026-04-26 16:08 | 40.13591 | 49.18563 | 17020 ft | 371 kts | 103° |
| 2026-04-26 16:08 | 40.13075 | 49.21838 | 16432 ft | 365 kts | 103° |
| 2026-04-26 16:08 | 40.12563 | 49.25075 | 15854 ft | 360 kts | 103° |
| 2026-04-26 16:09 | 40.12358 | 49.28295 | 15329 ft | 355 kts | 80° |
| 2026-04-26 16:09 | 40.13237 | 49.31233 | 15162 ft | 350 kts | 53° |
| 2026-04-26 16:09 | 40.14883 | 49.33639 | 15148 ft | 358 kts | 38° |
| 2026-04-26 16:09 | 40.17290 | 49.36002 | 15107 ft | 361 kts | 32° |